Time;durP1;ratioP1;P1;durP2;ratioP2;P2;SDS_P1;SDS_P2;PMS_P1;PMS_P2;Temp;Humidity;BMP_temperature;BMP_pressure;BME280_temperature;BME280_humidity;BME280_pressure;Samples;Min_cycle;Max_cycle;Signal;HPM_P1;HPM_P2
2023/12/04 00:00:24;;;;;;;12.95;4.00;;;;;;;-2.14;100.00;101565.06;5064384;28;20120;-69
2023/12/04 00:02:50;;;;;;;12.68;4.53;;;;;;;-2.15;100.00;101572.75;5057383;28;20067;-69
2023/12/04 00:05:15;;;;;;;9.25;3.22;;;;;;;-2.27;100.00;101567.94;5057434;28;20036;-69
2023/12/04 00:07:41;;;;;;;6.35;2.92;;;;;;;-2.29;100.00;101569.69;5054434;28;20033;-68
2023/12/04 00:10:08;;;;;;;11.32;3.08;;;;;;;-2.23;100.00;101567.84;5055004;28;20028;-68
2023/12/04 00:12:33;;;;;;;7.28;3.45;;;;;;;-2.26;100.00;101569.63;5049647;28;20378;-68
2023/12/04 00:14:59;;;;;;;6.40;3.08;;;;;;;-2.23;100.00;101569.53;5055657;28;20041;-68
2023/12/04 00:17:24;;;;;;;8.68;3.65;;;;;;;-2.26;100.00;101570.47;5048973;28;20159;-68
2023/12/04 00:19:49;;;;;;;5.28;2.65;;;;;;;-2.24;100.00;101573.81;5063691;28;20033;-69
2023/12/04 00:22:15;;;;;;;6.82;2.70;;;;;;;-2.27;100.00;101571.31;5061006;28;20160;-68
2023/12/04 00:24:40;;;;;;;9.15;3.53;;;;;;;-2.28;100.00;101568.81;5050784;28;20032;-68
2023/12/04 00:27:06;;;;;;;8.55;3.00;;;;;;;-2.28;100.00;101566.25;5064144;28;20401;-68
2023/12/04 00:29:31;;;;;;;7.57;3.05;;;;;;;-2.29;100.00;101570.53;5056440;28;20473;-68
2023/12/04 00:31:57;;;;;;;3.58;1.73;;;;;;;-2.28;100.00;101566.25;5061934;28;20037;-68
2023/12/04 00:34:22;;;;;;;6.28;2.38;;;;;;;-2.29;100.00;101569.69;5061644;28;20039;-68
2023/12/04 00:36:48;;;;;;;8.50;2.17;;;;;;;-2.31;100.00;101568.88;5056710;28;20089;-68
2023/12/04 00:39:13;;;;;;;4.63;2.35;;;;;;;-2.31;100.00;101559.50;5058189;28;20028;-68
2023/12/04 00:41:39;;;;;;;5.70;2.42;;;;;;;-2.33;100.00;101554.44;5060127;28;20040;-68
2023/12/04 00:44:04;;;;;;;6.57;2.33;;;;;;;-2.30;100.00;101565.44;5060383;28;20547;-68
2023/12/04 00:46:29;;;;;;;4.80;1.95;;;;;;;-2.26;100.00;101551.75;5058004;28;20093;-68
2023/12/04 00:48:55;;;;;;;3.63;1.40;;;;;;;-2.21;100.00;101548.22;5061652;28;20029;-68
2023/12/04 00:51:20;;;;;;;3.65;1.98;;;;;;;-2.20;100.00;101549.06;5054176;28;20037;-69
2023/12/04 00:53:46;;;;;;;4.60;1.90;;;;;;;-2.22;100.00;101541.44;5053926;28;20115;-68
2023/12/04 00:56:11;;;;;;;6.30;1.88;;;;;;;-2.20;100.00;101543.94;5057589;28;20044;-69
2023/12/04 00:58:37;;;;;;;4.18;2.45;;;;;;;-2.20;100.00;101543.94;5060768;28;20059;-68
2023/12/04 01:01:02;;;;;;;5.07;1.85;;;;;;;-2.19;100.00;101541.34;5063175;28;20033;-68
2023/12/04 01:03:28;;;;;;;2.40;1.38;;;;;;;-2.08;100.00;101548.75;5059754;28;20091;-68
2023/12/04 01:05:53;;;;;;;4.40;0.98;;;;;;;-2.04;100.00;101552.91;5059196;28;20052;-68
2023/12/04 01:08:19;;;;;;;6.30;1.67;;;;;;;-2.03;100.00;101546.94;5058201;28;20033;-68
2023/12/04 01:10:44;;;;;;;3.40;1.88;;;;;;;-2.06;100.00;101547.00;5058612;28;20028;-68
2023/12/04 01:13:09;;;;;;;3.33;1.10;;;;;;;-2.13;100.00;101546.31;5063161;28;20053;-68
2023/12/04 01:15:36;;;;;;;3.35;0.93;;;;;;;-2.10;100.00;101540.28;5043694;28;20032;-68
2023/12/04 01:18:01;;;;;;;4.35;1.33;;;;;;;-2.08;100.00;101541.09;5057083;28;20432;-68
2023/12/04 01:20:27;;;;;;;4.53;1.63;;;;;;;-2.13;100.00;101541.19;5059696;28;20043;-68
2023/12/04 01:22:52;;;;;;;3.50;1.73;;;;;;;-2.14;100.00;101539.53;5069217;28;20109;-68
2023/12/04 01:25:18;;;;;;;2.70;1.45;;;;;;;-2.15;100.00;101532.75;5059191;28;20064;-69
2023/12/04 01:27:44;;;;;;;2.85;1.00;;;;;;;-2.17;100.00;101534.50;5061547;28;20029;-68
2023/12/04 01:30:10;;;;;;;1.83;0.98;;;;;;;-2.20;100.00;101534.56;5062228;28;20048;-68
2023/12/04 01:32:35;;;;;;;3.47;1.38;;;;;;;-2.19;100.00;101532.84;5059119;28;20056;-68
2023/12/04 01:35:02;;;;;;;4.63;1.10;;;;;;;-2.21;100.00;101532.88;5061695;28;20095;-68
2023/12/04 01:37:27;;;;;;;3.55;1.52;;;;;;;-2.21;100.00;101532.88;5064371;28;20123;-68
2023/12/04 01:39:53;;;;;;;1.75;0.90;;;;;;;-2.24;100.00;101530.41;5058439;28;20052;-68
2023/12/04 01:42:18;;;;;;;2.28;0.65;;;;;;;-2.24;100.00;101532.13;5062813;28;20033;-68
2023/12/04 01:44:43;;;;;;;2.88;1.17;;;;;;;-2.26;100.00;101528.78;5047675;28;20033;-68
2023/12/04 01:47:10;;;;;;;2.90;1.00;;;;;;;-2.25;100.00;101526.19;5060242;28;20335;-68
2023/12/04 01:49:36;;;;;;;3.28;1.30;;;;;;;-2.24;100.00;101532.97;5067870;28;20032;-69
2023/12/04 01:52:02;;;;;;;1.92;0.50;;;;;;;-2.26;100.00;101542.38;5062106;28;20043;-68
2023/12/04 01:54:28;;;;;;;5.68;0.90;;;;;;;-2.28;100.00;101540.72;5050276;28;20143;-68
2023/12/04 01:56:54;;;;;;;4.38;1.00;;;;;;;-2.31;100.00;101544.19;5065601;28;20029;-68
2023/12/04 01:59:21;;;;;;;4.10;0.60;;;;;;;-2.29;100.00;101539.06;5053803;28;20074;-68
2023/12/04 02:01:47;;;;;;;2.47;0.75;;;;;;;-2.30;100.00;101527.16;5066859;28;20131;-68
2023/12/04 02:04:13;;;;;;;2.63;0.90;;;;;;;-2.33;100.00;101526.34;5046079;28;20766;-69
2023/12/04 02:06:40;;;;;;;3.78;1.20;;;;;;;-2.30;100.00;101524.59;5066088;28;20096;-70
2023/12/04 02:09:06;;;;;;;3.28;0.70;;;;;;;-2.35;100.00;101530.66;5066551;28;20421;-69
2023/12/04 02:11:32;;;;;;;4.90;1.10;;;;;;;-2.37;100.00;101527.34;5056228;28;20032;-68
2023/12/04 02:13:58;;;;;;;1.98;0.77;;;;;;;-2.35;100.00;101524.72;5063469;28;20048;-68
2023/12/04 02:16:26;;;;;;;2.90;0.93;;;;;;;-2.37;100.00;101519.69;5058845;28;20036;-68
2023/12/04 02:18:52;;;;;;;4.15;1.17;;;;;;;-2.43;100.00;101517.28;5060412;28;20051;-68
2023/12/04 02:21:18;;;;;;;3.13;1.30;;;;;;;-2.43;100.00;101521.53;5063438;28;20025;-68
2023/12/04 02:23:49;;;;;;;3.30;0.85;;;;;;;-2.46;100.00;101517.34;5047007;28;20389;-69
2023/12/04 02:26:18;;;;;;;3.25;0.70;;;;;;;-2.42;100.00;101513.00;5060281;28;20032;-68
2023/12/04 02:28:48;;;;;;;3.55;0.95;;;;;;;-2.39;100.00;101506.13;5062433;28;20123;-68
2023/12/04 02:31:16;;;;;;;3.88;1.15;;;;;;;-2.43;100.00;101507.06;5064371;28;20094;-68
2023/12/04 02:33:45;;;;;;;2.80;0.70;;;;;;;-2.44;100.00;101515.59;5063663;28;20032;-69
2023/12/04 02:36:12;;;;;;;1.83;0.80;;;;;;;-2.44;100.00;101513.03;5065746;28;20056;-68
2023/12/04 02:38:38;;;;;;;3.33;1.20;;;;;;;-2.45;100.00;101516.47;5059687;28;20040;-68
2023/12/04 02:41:03;;;;;;;1.70;0.70;;;;;;;-2.48;100.00;101511.44;5065391;28;20040;-68
2023/12/04 02:43:29;;;;;;;3.70;0.95;;;;;;;-2.53;100.00;101505.59;5055357;28;20075;-68
2023/12/04 02:45:54;;;;;;;6.03;2.67;;;;;;;-2.58;100.00;101509.97;5059860;28;20058;-68
2023/12/04 02:48:20;;;;;;;3.03;1.17;;;;;;;-2.53;100.00;101503.06;5058298;28;20103;-68
2023/12/04 02:50:45;;;;;;;5.68;1.40;;;;;;;-2.59;100.00;101507.47;5062836;28;20098;-68
2023/12/04 02:53:11;;;;;;;4.05;1.80;;;;;;;-2.54;100.00;101505.63;5057510;28;20041;-68
2023/12/04 02:55:36;;;;;;;5.18;1.85;;;;;;;-2.53;100.00;101505.59;5056214;28;20028;-68
2023/12/04 02:58:01;;;;;;;3.03;1.63;;;;;;;-2.54;100.00;101505.63;5057363;28;20444;-68
2023/12/04 03:00:27;;;;;;;2.65;1.45;;;;;;;-2.61;100.00;101502.38;5057241;28;20392;-69
2023/12/04 03:02:52;;;;;;;4.80;1.98;;;;;;;-2.52;100.00;101498.78;5059647;28;20081;-68
2023/12/04 03:05:19;;;;;;;3.50;1.35;;;;;;;-2.53;100.00;101492.00;5057640;28;20094;-68
2023/12/04 03:07:45;;;;;;;5.55;1.58;;;;;;;-2.54;100.00;101498.81;5058999;28;20020;-69
2023/12/04 03:10:11;;;;;;;5.53;1.83;;;;;;;-2.56;100.00;101500.56;5059001;28;20097;-68
2023/12/04 03:12:36;;;;;;;4.07;1.75;;;;;;;-2.53;100.00;101495.41;5058170;28;20417;-69
2023/12/04 03:15:02;;;;;;;3.45;1.67;;;;;;;-2.54;100.00;101487.78;5054733;28;20048;-68
2023/12/04 03:17:28;;;;;;;2.97;1.10;;;;;;;-2.56;100.00;101492.91;5035222;28;20025;-68
2023/12/04 03:19:53;;;;;;;6.93;1.60;;;;;;;-2.56;100.00;101500.56;5059197;28;20048;-68
2023/12/04 03:22:19;;;;;;;4.15;1.30;;;;;;;-2.58;100.00;101492.09;5060669;28;20039;-68
2023/12/04 03:24:44;;;;;;;4.47;1.40;;;;;;;-2.57;100.00;101490.41;5058616;28;20028;-68
2023/12/04 03:27:09;;;;;;;4.28;1.25;;;;;;;-2.60;100.00;101493.84;5057944;28;20485;-68
2023/12/04 03:29:35;;;;;;;3.25;1.60;;;;;;;-2.63;100.00;101488.81;5055955;28;20390;-68
2023/12/04 03:32:00;;;;;;;4.28;0.88;;;;;;;-2.66;100.00;101481.25;5054551;28;20809;-68
2023/12/04 03:34:26;;;;;;;2.85;1.20;;;;;;;-2.69;100.00;101484.69;5061678;28;20035;-68
2023/12/04 03:36:51;;;;;;;2.30;0.95;;;;;;;-2.65;100.00;101487.19;5066493;28;20488;-68
2023/12/04 03:39:16;;;;;;;3.97;1.05;;;;;;;-2.63;100.00;101480.34;5063210;28;20036;-68
2023/12/04 03:41:42;;;;;;;3.00;1.02;;;;;;;-2.64;100.00;101482.03;5052608;28;20094;-68
2023/12/04 03:44:07;;;;;;;1.40;0.57;;;;;;;-2.59;100.00;101495.53;5045174;28;20032;-68
2023/12/04 03:46:33;;;;;;;2.55;1.05;;;;;;;-2.62;100.00;101484.56;5061713;28;21515;-69
2023/12/04 03:48:59;;;;;;;2.83;1.08;;;;;;;-2.66;100.00;101483.78;5063951;28;20040;-68
2023/12/04 03:51:24;;;;;;;3.30;1.02;;;;;;;-2.69;100.00;101484.69;5060737;28;20497;-68
2023/12/04 03:53:50;;;;;;;2.28;0.77;;;;;;;-2.63;100.00;101486.28;5068273;28;20043;-68
2023/12/04 03:56:15;;;;;;;1.90;0.70;;;;;;;-2.41;100.00;101484.91;5063518;28;20036;-69
2023/12/04 03:58:40;;;;;;;2.35;0.52;;;;;;;-2.21;100.00;101488.66;5065943;28;20028;-69
2023/12/04 04:01:06;;;;;;;4.35;1.52;;;;;;;-2.21;100.00;101493.75;5063738;28;20490;-68
2023/12/04 04:03:32;;;;;;;2.10;0.80;;;;;;;-2.30;100.00;101491.44;5060205;28;20032;-68
2023/12/04 04:05:57;;;;;;;1.50;0.70;;;;;;;-2.39;100.00;101484.84;5062596;28;20394;-68
2023/12/04 04:08:22;;;;;;;2.65;0.70;;;;;;;-2.34;100.00;101491.50;5058754;28;20028;-69
2023/12/04 04:10:48;;;;;;;1.75;0.75;;;;;;;-1.98;100.00;101488.91;5057991;28;20025;-68
2023/12/04 04:13:13;;;;;;;2.58;1.15;;;;;;;-1.83;100.00;101483.38;5057150;28;20056;-68
2023/12/04 04:15:39;;;;;;;2.08;1.08;;;;;;;-1.88;100.00;101492.88;5063274;28;20635;-68
2023/12/04 04:18:04;;;;;;;3.90;1.05;;;;;;;-2.02;100.00;101492.41;5061579;28;20028;-68
2023/12/04 04:20:30;;;;;;;1.88;0.63;;;;;;;-2.16;100.00;101489.38;5054680;28;20098;-68
2023/12/04 04:22:55;;;;;;;2.72;0.70;;;;;;;-2.27;100.00;101491.34;5062694;28;20033;-68
2023/12/04 04:25:23;;;;;;;2.60;1.10;;;;;;;-2.37;100.00;101493.31;5061881;28;20032;-68
2023/12/04 04:27:48;;;;;;;1.77;0.70;;;;;;;-2.36;100.00;101493.25;5062071;28;20017;-68
2023/12/04 04:30:14;;;;;;;3.47;1.48;;;;;;;-1.98;100.00;101493.19;5066737;28;20032;-69
2023/12/04 04:32:39;;;;;;;1.15;0.50;;;;;;;-1.62;91.79;101493.91;5066074;28;20029;-68
2023/12/04 04:35:05;;;;;;;5.32;0.52;;;;;;;-1.44;90.45;101491.69;5063926;28;20042;-68
2023/12/04 04:37:30;;;;;;;3.65;0.68;;;;;;;-1.33;87.29;101484.53;5060409;28;20054;-68
2023/12/04 04:39:56;;;;;;;3.17;0.63;;;;;;;-1.28;90.19;101492.06;5063967;28;20127;-68
2023/12/04 04:42:22;;;;;;;2.05;0.40;;;;;;;-1.29;90.27;101490.38;5065731;28;20067;-68
2023/12/04 04:44:47;;;;;;;1.40;0.50;;;;;;;-1.33;91.02;101499.03;5068801;28;20481;-69
2023/12/04 04:47:13;;;;;;;2.50;0.30;;;;;;;-1.37;92.69;101505.94;5066122;28;20077;-69
2023/12/04 04:49:38;;;;;;;2.60;0.60;;;;;;;-1.55;93.97;101508.19;5059843;28;20350;-68
2023/12/04 04:52:04;;;;;;;1.98;0.70;;;;;;;-1.75;93.54;101517.22;5058406;28;20044;-68
2023/12/04 04:54:33;;;;;;;1.33;0.40;;;;;;;-1.58;93.69;101510.84;5061948;28;20435;-68
2023/12/04 04:56:58;;;;;;;1.17;0.68;;;;;;;-1.63;91.75;101505.84;5056945;28;20103;-68
2023/12/04 04:59:24;;;;;;;2.03;0.40;;;;;;;-1.47;92.97;101504.56;5057189;28;20482;-68
2023/12/04 05:01:49;;;;;;;1.63;0.68;;;;;;;-1.48;94.09;101502.88;5063689;28;20033;-69
2023/12/04 05:04:14;;;;;;;1.83;0.63;;;;;;;-1.60;95.57;101505.75;5065047;28;20059;-68
2023/12/04 05:06:40;;;;;;;1.40;0.38;;;;;;;-1.78;96.29;101506.25;5068466;28;20031;-68
2023/12/04 05:09:05;;;;;;;1.30;0.50;;;;;;;-1.91;97.29;101515.97;5064588;28;20454;-68
2023/12/04 05:11:31;;;;;;;1.65;0.60;;;;;;;-2.04;98.53;101510.34;5063162;28;20028;-68
2023/12/04 05:13:56;;;;;;;3.40;0.73;;;;;;;-2.05;97.43;101502.72;5067810;28;20052;-70
2023/12/04 05:16:22;;;;;;;1.33;0.28;;;;;;;-2.16;97.90;101492.75;5056315;28;20051;-69
2023/12/04 05:18:47;;;;;;;3.50;0.85;;;;;;;-2.24;99.45;101486.16;5058686;28;20474;-70
2023/12/04 05:21:13;;;;;;;1.90;0.70;;;;;;;-2.12;99.57;101480.75;5050723;28;20104;-69
2023/12/04 05:23:38;;;;;;;2.05;0.43;;;;;;;-2.20;100.00;101477.56;5055098;28;20397;-68
2023/12/04 05:26:06;;;;;;;2.58;0.50;;;;;;;-2.28;100.00;101476.91;5054044;28;20036;-68
2023/12/04 05:28:31;;;;;;;7.03;0.75;;;;;;;-2.37;100.00;101467.78;5053354;28;20039;-68
2023/12/04 05:30:57;;;;;;;2.30;0.60;;;;;;;-2.41;100.00;101474.69;5065327;28;20040;-68
2023/12/04 05:33:22;;;;;;;1.60;0.70;;;;;;;-2.48;100.00;101473.16;5058764;28;20513;-68
2023/12/04 05:35:50;;;;;;;1.40;0.68;;;;;;;-2.49;100.00;101465.53;5060543;28;20122;-69
2023/12/04 05:38:16;;;;;;;2.15;0.75;;;;;;;-2.48;100.00;101460.41;5059226;28;20032;-69
2023/12/04 05:40:41;;;;;;;2.92;0.90;;;;;;;-2.50;100.00;101464.69;5062200;28;20032;-68
2023/12/04 05:43:07;;;;;;;1.58;0.60;;;;;;;-2.40;100.00;101460.22;5060334;28;20047;-69
2023/12/04 05:45:32;;;;;;;5.72;0.85;;;;;;;-2.10;99.67;101445.81;5063480;28;20044;-68
2023/12/04 05:47:58;;;;;;;2.15;0.60;;;;;;;-1.85;94.93;101448.53;5063725;28;20024;-69
2023/12/04 05:50:23;;;;;;;2.30;0.40;;;;;;;-1.39;89.58;101446.34;5057971;28;20024;-69
2023/12/04 05:52:49;;;;;;;3.40;0.57;;;;;;;-1.11;86.51;101443.81;5051643;28;20027;-69
2023/12/04 05:55:15;;;;;;;2.42;0.60;;;;;;;-0.80;83.12;101437.75;5058856;28;20033;-69
2023/12/04 05:57:40;;;;;;;1.40;0.40;;;;;;;-0.59;82.58;101439.63;5059936;28;20051;-69
2023/12/04 06:00:15;;;;;;;1.33;0.38;;;;;;;-0.56;80.56;101429.28;5061067;28;20496;-69
2023/12/04 06:02:45;;;;;;;2.25;0.30;;;;;;;-0.43;79.56;101419.44;5041348;28;20084;-69
2023/12/04 06:05:10;;;;;;;3.35;0.80;;;;;;;-0.68;81.08;101434.78;5056798;28;20040;-69
2023/12/04 06:07:37;;;;;;;2.50;0.70;;;;;;;-0.98;81.90;101428.09;5055510;28;20027;-69
2023/12/04 06:10:06;;;;;;;2.10;0.57;;;;;;;-1.15;85.31;101433.72;5063158;28;20056;-69
2023/12/04 06:12:32;;;;;;;1.90;0.70;;;;;;;-1.32;85.54;101434.22;5052141;28;20033;-70
2023/12/04 06:15:00;;;;;;;3.15;1.00;;;;;;;-1.42;87.36;101433.66;5057256;28;20589;-70
2023/12/04 06:17:27;;;;;;;3.30;0.82;;;;;;;-1.49;85.88;101431.34;5061376;28;20029;-70
2023/12/04 06:19:53;;;;;;;3.75;0.68;;;;;;;-1.34;85.89;101425.75;5056054;28;20037;-70
2023/12/04 06:22:19;;;;;;;3.80;1.45;;;;;;;-1.24;86.47;101437.41;5058066;28;20029;-69
2023/12/04 06:24:46;;;;;;;6.45;1.40;;;;;;;-1.39;88.46;101431.00;5061128;28;20036;-69
2023/12/04 06:27:18;;;;;;;3.10;1.35;;;;;;;-1.60;88.79;101433.38;5058489;28;20381;-70
2023/12/04 06:29:44;;;;;;;5.70;1.13;;;;;;;-1.78;90.92;101432.16;5057125;28;20394;-69
2023/12/04 06:32:11;;;;;;;1.67;0.45;;;;;;;-1.68;89.90;101436.97;5035387;28;20393;-69
2023/12/04 06:34:37;;;;;;;1.00;0.45;;;;;;;-1.65;89.77;101430.94;5062954;28;20029;-69
2023/12/04 06:37:02;;;;;;;3.08;0.80;;;;;;;-1.73;90.07;101418.38;5058485;28;20116;-69
2023/12/04 06:39:32;;;;;;;3.47;0.77;;;;;;;-1.73;90.35;101415.81;5056232;28;20119;-69
2023/12/04 06:41:59;;;;;;;2.83;1.02;;;;;;;-1.73;92.01;101422.66;5060596;28;20091;-69
2023/12/04 06:44:24;;;;;;;1.90;0.55;;;;;;;-1.77;91.30;101419.34;5061463;28;20029;-69
2023/12/04 06:46:51;;;;;;;2.20;0.73;;;;;;;-1.61;89.33;101421.47;5056904;28;20104;-69
2023/12/04 06:49:18;;;;;;;2.13;0.52;;;;;;;-1.47;86.53;101415.09;5061686;28;20036;-69
2023/12/04 06:51:43;;;;;;;5.25;0.73;;;;;;;-0.99;81.75;101409.34;5055967;28;20043;-70
2023/12/04 06:54:09;;;;;;;3.53;1.35;;;;;;;-0.86;82.18;101413.19;5054670;28;20033;-69
2023/12/04 06:56:34;;;;;;;2.53;0.82;;;;;;;-1.08;82.98;101407.91;5056155;28;20184;-70
2023/12/04 06:59:00;;;;;;;3.63;0.60;;;;;;;-1.27;84.62;101401.69;5060789;28;20052;-69
2023/12/04 07:01:25;;;;;;;1.45;0.77;;;;;;;-1.31;85.15;101399.25;5053341;28;20125;-69
2023/12/04 07:03:50;;;;;;;2.55;0.68;;;;;;;-1.24;87.53;101391.38;5053383;28;20115;-70
2023/12/04 07:06:16;;;;;;;4.32;1.20;;;;;;;-1.30;87.91;101395.81;5061767;28;20094;-69
2023/12/04 07:08:42;;;;;;;6.05;1.70;;;;;;;-1.54;87.20;101392.31;5056410;28;20082;-70
2023/12/04 07:11:08;;;;;;;11.40;2.28;;;;;;;-1.59;88.03;101389.03;5062642;28;20043;-70
2023/12/04 07:13:34;;;;;;;5.90;1.80;;;;;;;-1.45;89.24;101392.03;5053821;28;20106;-69
2023/12/04 07:15:59;;;;;;;5.35;1.83;;;;;;;-1.39;90.17;101387.53;5056514;28;20029;-69
2023/12/04 07:18:25;;;;;;;5.10;1.25;;;;;;;-1.28;90.00;101384.66;5058684;28;20024;-69
2023/12/04 07:20:51;;;;;;;5.00;1.27;;;;;;;-1.20;90.47;101380.16;5055301;28;20040;-69
2023/12/04 07:23:17;;;;;;;3.85;1.17;;;;;;;-1.15;91.64;101375.75;5054330;28;20082;-70
2023/12/04 07:25:42;;;;;;;4.20;1.08;;;;;;;-1.14;90.42;101377.41;5056028;28;20036;-69
2023/12/04 07:28:08;;;;;;;4.15;1.48;;;;;;;-1.12;90.52;101374.81;5060082;28;20382;-69
2023/12/04 07:30:33;;;;;;;3.35;1.10;;;;;;;-1.08;92.00;101379.78;5057125;28;20040;-70
2023/12/04 07:32:59;;;;;;;3.88;1.35;;;;;;;-1.04;91.31;101381.38;5059743;28;20037;-69
2023/12/04 07:35:26;;;;;;;2.08;0.70;;;;;;;-1.02;93.08;101384.72;5060051;28;20032;-69
2023/12/04 07:37:52;;;;;;;2.65;0.80;;;;;;;-0.98;93.00;101384.63;5057512;28;20082;-70
2023/12/04 07:40:17;;;;;;;4.10;1.73;;;;;;;-0.97;93.09;101388.84;5057693;28;20112;-70
2023/12/04 07:42:43;;;;;;;4.72;1.60;;;;;;;-0.93;93.69;101395.50;5056940;28;20207;-70
2023/12/04 07:45:10;;;;;;;4.72;1.48;;;;;;;-0.94;94.26;101397.22;5043083;28;20094;-70
2023/12/04 07:47:36;;;;;;;3.30;0.93;;;;;;;-0.92;95.17;101390.34;5062114;28;20041;-71
2023/12/04 07:50:01;;;;;;;3.67;1.33;;;;;;;-0.84;95.26;101395.22;5052329;28;20360;-69
2023/12/04 07:52:27;;;;;;;2.35;0.85;;;;;;;-0.70;93.18;101393.91;5062830;28;20035;-68
2023/12/04 07:54:52;;;;;;;5.25;1.45;;;;;;;-0.49;86.82;101386.41;5066115;28;20035;-68
2023/12/04 07:57:18;;;;;;;2.58;1.00;;;;;;;-0.15;81.42;101386.91;5060952;28;20044;-68
2023/12/04 07:59:44;;;;;;;3.78;1.15;;;;;;;0.05;80.21;101373.34;5066941;28;20025;-68
2023/12/04 08:02:10;;;;;;;3.25;1.08;;;;;;;0.22;78.22;101371.03;5063145;28;20101;-68
2023/12/04 08:04:36;;;;;;;3.47;0.77;;;;;;;0.35;81.42;101378.25;5064130;28;20020;-68
2023/12/04 08:07:02;;;;;;;5.60;1.45;;;;;;;0.39;82.87;101372.97;5073035;28;20021;-68
2023/12/04 08:09:27;;;;;;;2.88;0.68;;;;;;;0.42;79.55;101380.53;5070526;28;20028;-68
2023/12/04 08:11:53;;;;;;;3.60;1.05;;;;;;;0.50;80.26;101375.09;5059279;28;20135;-68
2023/12/04 08:14:18;;;;;;;2.67;1.02;;;;;;;0.54;80.27;101366.41;5069308;28;20072;-69
2023/12/04 08:16:44;;;;;;;4.28;1.10;;;;;;;0.62;81.21;101365.22;5064131;28;20029;-69
2023/12/04 08:19:09;;;;;;;15.90;1.67;;;;;;;0.63;81.98;101369.44;5061518;28;20032;-69
2023/12/04 08:21:34;;;;;;;4.03;1.10;;;;;;;0.67;78.59;101365.03;5070313;28;20115;-70
2023/12/04 08:24:00;;;;;;;4.05;1.77;;;;;;;0.73;82.19;101371.66;5069223;28;20115;-69
2023/12/04 08:26:25;;;;;;;3.22;1.13;;;;;;;0.69;84.22;101385.50;5058684;28;20029;-70
2023/12/04 08:28:52;;;;;;;3.50;1.30;;;;;;;0.62;85.13;101390.03;5068436;28;20021;-69
2023/12/04 08:31:17;;;;;;;3.60;1.17;;;;;;;0.61;86.26;101384.06;5061435;28;20033;-69
2023/12/04 08:33:43;;;;;;;4.90;1.35;;;;;;;0.65;86.70;101384.78;5063592;28;20400;-69
2023/12/04 08:36:10;;;;;;;2.47;1.08;;;;;;;0.68;87.37;101379.53;5057133;28;20024;-69
2023/12/04 08:38:36;;;;;;;3.10;1.05;;;;;;;0.70;87.20;101382.03;5061469;28;20032;-69
2023/12/04 08:41:02;;;;;;;3.03;0.90;;;;;;;0.73;86.55;101381.91;5055312;28;20044;-69
2023/12/04 08:43:28;;;;;;;2.47;0.88;;;;;;;0.76;87.98;101376.69;5067078;28;20033;-69
2023/12/04 08:45:54;;;;;;;2.58;0.68;;;;;;;0.79;87.47;101384.25;5060979;28;20032;-70
2023/12/04 08:48:19;;;;;;;5.20;0.75;;;;;;;0.85;87.99;101382.28;5061538;28;20470;-70
2023/12/04 08:50:45;;;;;;;1.50;0.60;;;;;;;0.89;87.60;101386.41;5052598;28;20047;-70
2023/12/04 08:53:10;;;;;;;1.88;0.55;;;;;;;0.94;87.56;101393.91;5066113;28;20080;-70
2023/12/04 08:55:36;;;;;;;3.05;0.68;;;;;;;0.99;88.28;101390.25;5063429;28;20047;-70
2023/12/04 08:58:02;;;;;;;5.68;0.60;;;;;;;1.04;87.99;101394.38;5069061;28;20111;-70
2023/12/04 09:00:27;;;;;;;1.17;0.50;;;;;;;1.09;87.93;101387.31;5065226;28;20028;-70
2023/12/04 09:02:53;;;;;;;1.73;0.40;;;;;;;1.14;88.09;101393.94;5066802;28;20032;-69
2023/12/04 09:05:18;;;;;;;2.22;0.50;;;;;;;1.22;88.45;101399.59;5045169;28;20474;-69
2023/12/04 09:07:44;;;;;;;1.80;0.50;;;;;;;1.32;87.95;101398.34;5066657;28;20021;-69
2023/12/04 09:10:09;;;;;;;2.25;0.43;;;;;;;1.41;88.04;101412.53;5059851;28;20029;-69
2023/12/04 09:12:36;;;;;;;2.15;0.40;;;;;;;1.52;87.96;101415.47;5066565;28;20128;-69
2023/12/04 09:15:02;;;;;;;0.77;0.30;;;;;;;1.65;88.20;101406.34;5052529;28;20144;-70
2023/12/04 09:17:28;;;;;;;1.80;0.52;;;;;;;1.77;88.12;101415.28;5058909;28;20508;-70
2023/12/04 09:19:54;;;;;;;2.17;1.05;;;;;;;1.87;87.45;101403.72;5059684;28;20119;-70
2023/12/04 09:22:19;;;;;;;1.73;1.02;;;;;;;1.99;86.89;101402.34;5055699;28;20029;-70
2023/12/04 09:24:45;;;;;;;3.30;0.88;;;;;;;2.04;86.50;101402.97;5067965;28;20052;-70
2023/12/04 09:27:10;;;;;;;2.45;0.82;;;;;;;2.13;86.00;101402.56;5062462;28;20055;-70
2023/12/04 09:29:36;;;;;;;1.70;0.50;;;;;;;2.22;84.47;101403.91;5056684;28;20112;-70
2023/12/04 09:32:01;;;;;;;1.77;0.40;;;;;;;2.28;81.71;101401.88;5058549;28;20033;-70
2023/12/04 09:34:27;;;;;;;1.77;0.52;;;;;;;2.40;80.14;101397.06;5054759;28;20568;-70
2023/12/04 09:36:52;;;;;;;1.35;0.40;;;;;;;2.45;81.19;101384.84;5052415;28;20037;-70
2023/12/04 09:39:17;;;;;;;2.03;0.75;;;;;;;2.46;76.96;101386.50;5064526;28;20036;-69
2023/12/04 09:41:44;;;;;;;2.28;0.30;;;;;;;2.56;82.03;101377.47;5067365;28;20112;-70
2023/12/04 09:44:09;;;;;;;1.45;0.45;;;;;;;2.60;76.80;101376.41;5069475;28;20055;-70
2023/12/04 09:46:35;;;;;;;3.67;0.88;;;;;;;2.67;77.75;101359.78;5051667;28;20036;-70
2023/12/04 09:49:02;;;;;;;3.63;1.17;;;;;;;2.78;80.37;101360.13;5059956;28;20064;-70
2023/12/04 09:51:28;;;;;;;2.72;0.50;;;;;;;2.91;80.34;101361.19;5065361;28;20071;-70
2023/12/04 09:53:55;;;;;;;6.82;0.55;;;;;;;2.89;77.45;101347.56;5060125;28;20052;-70
2023/12/04 09:56:22;;;;;;;3.38;0.52;;;;;;;2.89;74.44;101347.56;5061434;28;20039;-70
2023/12/04 09:58:52;;;;;;;1.30;0.45;;;;;;;2.96;76.01;101333.47;5059713;28;20036;-70
2023/12/04 10:01:18;;;;;;;2.20;0.80;;;;;;;3.06;71.26;101335.59;5054870;28;20040;-69
2023/12/04 10:03:45;;;;;;;1.95;0.68;;;;;;;3.16;74.74;101329.94;5054456;28;20025;-70
2023/12/04 10:06:16;;;;;;;1.88;1.00;;;;;;;3.20;74.22;101338.34;5058496;28;20033;-70
2023/12/04 10:08:44;;;;;;;4.07;1.75;;;;;;;3.24;78.95;101332.13;5043133;28;20537;-70
2023/12/04 10:11:10;;;;;;;4.75;1.63;;;;;;;3.32;78.75;101329.97;5062734;28;20052;-70
2023/12/04 10:13:35;;;;;;;2.50;1.20;;;;;;;3.30;80.30;101322.38;5058559;28;20045;-70
2023/12/04 10:16:01;;;;;;;4.63;1.38;;;;;;;3.32;78.57;101323.09;5057673;28;20029;-70
2023/12/04 10:18:30;;;;;;;2.53;0.90;;;;;;;3.34;79.78;101318.69;5056603;28;20029;-70
2023/12/04 10:20:56;;;;;;;5.82;1.58;;;;;;;3.31;79.88;101313.69;5057543;28;20037;-70
2023/12/04 10:23:22;;;;;;;2.58;1.10;;;;;;;3.31;81.58;101305.13;5059578;28;20032;-70
2023/12/04 10:25:50;;;;;;;3.80;1.00;;;;;;;3.44;83.15;101302.78;5058826;28;20033;-70
2023/12/04 10:28:17;;;;;;;6.40;1.15;;;;;;;3.57;83.44;101291.75;5056205;28;20028;-70
2023/12/04 10:30:43;;;;;;;3.20;1.02;;;;;;;3.65;83.97;101287.03;5059275;28;20083;-70
2023/12/04 10:33:10;;;;;;;3.50;1.35;;;;;;;3.64;84.15;101275.06;5060999;28;20040;-70
2023/12/04 10:35:36;;;;;;;4.05;1.15;;;;;;;3.66;83.49;101267.25;5063358;28;20444;-70
2023/12/04 10:38:03;;;;;;;1.92;0.75;;;;;;;3.69;85.24;101276.56;5059998;28;20098;-70
2023/12/04 10:40:31;;;;;;;2.90;0.65;;;;;;;3.70;86.02;101270.50;5053131;28;20043;-70
2023/12/04 10:43:08;;;;;;;3.58;1.08;;;;;;;3.67;85.97;101272.34;5051641;28;20037;-70
2023/12/04 10:45:34;;;;;;;2.97;0.75;;;;;;;3.71;86.12;101274.75;5057741;28;20064;-70
2023/12/04 10:48:00;;;;;;;1.95;0.82;;;;;;;3.71;85.97;101270.44;5065460;28;20126;-70
2023/12/04 10:50:28;;;;;;;7.22;0.60;;;;;;;3.75;86.03;101260.78;5058163;28;20032;-70
2023/12/04 10:52:55;;;;;;;54.97;3.97;;;;;;;3.80;85.62;101261.34;5063001;28;20482;-69
2023/12/04 10:55:21;;;;;;;5.47;1.58;;;;;;;3.78;85.02;101252.91;5058752;28;20531;-69
2023/12/04 10:57:51;;;;;;;3.35;0.75;;;;;;;3.84;82.12;101255.13;5063320;28;20073;-69
2023/12/04 11:00:17;;;;;;;1.73;0.77;;;;;;;3.78;80.39;101243.38;5059005;28;20135;-70
2023/12/04 11:02:48;;;;;;;3.70;1.17;;;;;;;3.90;82.69;101244.47;5063947;28;20425;-70
2023/12/04 11:05:17;;;;;;;2.85;1.05;;;;;;;3.98;80.65;101232.00;5060017;28;20064;-70
2023/12/04 11:07:53;;;;;;;4.28;1.05;;;;;;;3.93;74.23;101224.53;5057952;28;20028;-70
2023/12/04 11:10:24;;;;;;;6.88;1.20;;;;;;;3.89;72.92;101220.44;5061400;28;20032;-70
2023/12/04 11:12:56;;;;;;;3.90;0.95;;;;;;;3.93;77.09;101209.06;5061191;28;20047;-70
2023/12/04 11:15:25;;;;;;;4.28;0.45;;;;;;;4.02;76.32;101204.31;5058902;28;20033;-70
2023/12/04 11:17:56;;;;;;;10.32;1.02;;;;;;;3.96;75.48;101188.25;5051455;28;20033;-70